Wednesday, June 20, 2018, 7:44 AM GMT
Back to Local

CWNQ, Nicolet Automatic Weather Reporting System

Location: , , Canada Lat: 46.217
Local Time: 7:44 AM GMT ( 7:44 GMT) Lon: -72.65
Time Zone: GMT Elev: 32 ft

Show me the last for .
Show Coded

Time T Td Feel RH Dir Speed Gust Alt SLP Vis Weather Sky Remarks
2018-06-20 07:00 55 53 - 93 220° 1 - - 29.82 0 None
2018-06-20 04:00 57 54 - 91 260° 5 - - 29.84 0 None
2018-06-20 03:00 59 53 - 78 - Calm - - 29.84 0 None
2018-06-20 02:00 63 54 - 71 340° 1 - - 29.85 0 None
2018-06-20 01:00 68 51 - 55 290° 2 - - 29.84 0 None
2018-06-20 00:00 72 46 75 40 290° 1 - - 29.83 0 None
2018-06-19 23:00 73 43 - 33 300° 5 - - 29.82 0 None
2018-06-19 22:00 74 39 - 28 320° 7 - - 29.82 0 None
2018-06-19 21:00 74 40 - 29 310° 6 - - 29.82 0 None
2018-06-19 20:00 74 46 - 36 300° 6 - - 29.83 0 None
2018-06-19 19:00 72 42 - 34 280° 8 - - 29.83 0 None
2018-06-19 18:00 70 41 - 34 270° 8 - - 29.84 0 None
2018-06-19 17:00 69 42 - 36 290° 8 - - 29.84 0 None
2018-06-19 16:00 67 50 - 53 280° 6 - - 29.85 0 None
2018-06-19 15:00 65 50 - 58 280° 7 - - 29.85 0 None
2018-06-19 14:00 63 50 - 61 280° 6 - - 29.86 0 None
2018-06-19 13:00 61 48 - 63 300° 7 - - 29.86 0 None
2018-06-19 11:00 57 46 - 67 330° 7 - - 29.84 0 None
2018-06-19 10:00 56 45 - 66 330° 8 - - 29.81 0 None
2018-06-19 09:00 57 48 - 70 320° 12 18 - 29.78 0 Peak wind: 20 mph (18 kts) from 330° at 05 min
2018-06-19 08:00 60 51 - 70 330° 10 18 - 29.74 0 Peak wind: 21 mph (19 kts) from 320° at 45 min

Support USWX by starting your Amazon purchase here.